createdAt,value
2023-02-06T00:00:16.240Z,-4.09
2023-02-06T00:01:48.228Z,-4.08
2023-02-06T00:03:20.443Z,-4.06
2023-02-06T00:04:52.846Z,-4.09
2023-02-06T00:06:24.340Z,-4.10
2023-02-06T00:07:56.000Z,-4.12
2023-02-06T00:09:27.581Z,-4.06
2023-02-06T00:10:59.115Z,-3.96
2023-02-06T00:12:30.588Z,-3.88
2023-02-06T00:14:02.268Z,-3.83
2023-02-06T00:15:34.022Z,-3.81
2023-02-06T00:17:05.634Z,-3.79
2023-02-06T00:18:37.142Z,-3.76
2023-02-06T00:20:09.208Z,-3.73
2023-02-06T00:21:40.693Z,-3.69
2023-02-06T00:23:12.364Z,-3.63
2023-02-06T00:24:44.058Z,-3.61
2023-02-06T00:26:15.897Z,-3.61
2023-02-06T00:27:47.467Z,-3.62
2023-02-06T00:29:19.046Z,-3.64
2023-02-06T00:30:50.611Z,-3.62
2023-02-06T00:32:22.331Z,-3.66
2023-02-06T00:33:53.871Z,-3.72
2023-02-06T00:35:25.406Z,-3.76
2023-02-06T00:36:57.167Z,-3.76
2023-02-06T00:38:28.943Z,-3.72
2023-02-06T00:40:00.422Z,-3.74
2023-02-06T00:41:31.970Z,-3.82
2023-02-06T00:43:03.522Z,-3.82
2023-02-06T00:44:35.132Z,-3.87
2023-02-06T00:46:06.661Z,-3.87
2023-02-06T00:47:38.203Z,-3.79
2023-02-06T00:49:09.856Z,-3.77
2023-02-06T00:50:41.949Z,-3.78
2023-02-06T00:52:13.439Z,-3.77
2023-02-06T00:53:45.336Z,-3.77
2023-02-06T00:55:16.871Z,-3.79
2023-02-06T00:56:48.538Z,-3.82
2023-02-06T00:58:20.041Z,-3.85
2023-02-06T00:59:52.693Z,-3.84
2023-02-06T01:01:26.480Z,-3.85
2023-02-06T01:02:58.097Z,-3.84
2023-02-06T01:04:29.600Z,-3.79
2023-02-06T01:06:01.206Z,-3.76
2023-02-06T01:07:32.708Z,-3.71
2023-02-06T01:09:04.281Z,-3.71
2023-02-06T01:10:36.294Z,-3.73
2023-02-06T01:12:07.981Z,-3.72
2023-02-06T01:13:39.545Z,-3.72
2023-02-06T01:15:11.556Z,-3.70
2023-02-06T01:16:43.139Z,-3.64
2023-02-06T01:18:15.253Z,-3.59
2023-02-06T01:19:46.779Z,-3.57
2023-02-06T01:21:20.577Z,-3.57
2023-02-06T01:22:52.145Z,-3.51
2023-02-06T01:24:23.726Z,-3.47
2023-02-06T01:25:55.200Z,-3.51
2023-02-06T01:27:26.802Z,-3.54
2023-02-06T01:28:58.269Z,-3.55
2023-02-06T01:30:30.239Z,-3.56
2023-02-06T01:32:02.320Z,-3.62
2023-02-06T01:33:34.041Z,-3.67
2023-02-06T01:35:06.199Z,-3.70
2023-02-06T01:36:37.675Z,-3.74
2023-02-06T01:38:09.147Z,-3.73
2023-02-06T01:39:40.958Z,-3.76
2023-02-06T01:41:12.657Z,-3.76
2023-02-06T01:42:44.829Z,-3.78
2023-02-06T01:44:22.632Z,-3.78
2023-02-06T01:45:54.224Z,-3.82
2023-02-06T01:47:25.730Z,-3.83
2023-02-06T01:48:57.398Z,-3.84
2023-02-06T01:50:29.462Z,-3.85
2023-02-06T01:52:14.457Z,-3.84
2023-02-06T01:53:47.446Z,-3.81
2023-02-06T01:55:18.962Z,-3.77
2023-02-06T01:56:52.498Z,-3.79
2023-02-06T01:58:28.919Z,-3.81
2023-02-06T02:00:01.803Z,-3.82
2023-02-06T02:01:33.329Z,-3.84
2023-02-06T02:03:04.939Z,-3.89
2023-02-06T02:04:36.580Z,-3.86
2023-02-06T02:06:12.752Z,-3.90
2023-02-06T02:07:49.269Z,-3.91
2023-02-06T02:09:20.694Z,-3.89
2023-02-06T02:10:52.977Z,-3.90
2023-02-06T02:12:24.466Z,-3.92
2023-02-06T02:13:56.068Z,-3.94
2023-02-06T02:15:32.255Z,-3.96
2023-02-06T02:17:20.955Z,-4.01
2023-02-06T02:18:58.712Z,-4.06
2023-02-06T02:20:38.577Z,-4.08
2023-02-06T02:22:30.191Z,-4.08
2023-02-06T02:24:20.716Z,-4.09
2023-02-06T02:26:01.475Z,-4.13
2023-02-06T02:27:51.484Z,-4.12
2023-02-06T02:29:36.826Z,-4.14
2023-02-06T02:31:27.013Z,-4.09
2023-02-06T02:33:02.071Z,-4.05
2023-02-06T02:34:39.420Z,-4.03
2023-02-06T02:36:20.900Z,-4.07
2023-02-06T02:37:55.426Z,-4.12
2023-02-06T02:39:31.922Z,-4.08
2023-02-06T02:41:03.427Z,-4.07
2023-02-06T02:42:34.925Z,-4.02
2023-02-06T02:44:10.633Z,-4.00
2023-02-06T02:46:02.469Z,-3.99
2023-02-06T02:47:34.508Z,-3.96
2023-02-06T02:49:08.535Z,-4.00
2023-02-06T02:50:40.772Z,-4.06
2023-02-06T02:52:12.940Z,-4.05
2023-02-06T02:53:44.512Z,-4.06
2023-02-06T02:55:16.891Z,-4.14
2023-02-06T02:56:48.322Z,-4.20
2023-02-06T02:58:21.312Z,-4.22
2023-02-06T02:59:52.912Z,-4.22
2023-02-06T03:01:32.129Z,-4.22
2023-02-06T03:03:03.647Z,-4.25
2023-02-06T03:04:37.653Z,-4.25
2023-02-06T03:06:11.658Z,-4.24
2023-02-06T03:07:53.390Z,-4.25
2023-02-06T03:09:45.970Z,-4.29
2023-02-06T03:11:17.868Z,-4.19
2023-02-06T03:12:51.594Z,-4.22
2023-02-06T03:14:29.134Z,-4.25
2023-02-06T03:16:08.537Z,-4.27
2023-02-06T03:17:44.567Z,-4.32
2023-02-06T03:19:26.509Z,-4.38
2023-02-06T03:20:57.988Z,-4.52
2023-02-06T03:22:29.514Z,-4.57
2023-02-06T03:24:01.545Z,-4.55
2023-02-06T03:25:40.136Z,-4.51
2023-02-06T03:27:12.409Z,-4.50
2023-02-06T03:28:45.401Z,-4.46
2023-02-06T03:30:18.664Z,-4.48
2023-02-06T03:31:52.752Z,-4.55
2023-02-06T03:33:26.170Z,-4.59
2023-02-06T03:35:07.671Z,-4.65
2023-02-06T03:36:39.147Z,-4.73
2023-02-06T03:38:10.681Z,-4.79
2023-02-06T03:39:42.290Z,-4.79
2023-02-06T03:41:14.518Z,-4.76
2023-02-06T03:42:48.753Z,-4.73
2023-02-06T03:44:22.257Z,-4.66
2023-02-06T03:45:55.698Z,-4.65
2023-02-06T03:47:27.268Z,-4.66
2023-02-06T03:48:59.991Z,-4.73
2023-02-06T03:50:31.734Z,-4.86
2023-02-06T03:52:07.154Z,-5.00
2023-02-06T03:53:38.645Z,-5.12
2023-02-06T03:55:11.781Z,-5.24
2023-02-06T03:56:53.156Z,-5.24
2023-02-06T03:58:24.838Z,-5.22
2023-02-06T03:59:56.493Z,-5.16
2023-02-06T04:01:28.023Z,-5.12
2023-02-06T04:02:59.603Z,-5.11
2023-02-06T04:04:38.325Z,-5.08
2023-02-06T04:06:09.860Z,-5.12
2023-02-06T04:07:41.480Z,-5.18
2023-02-06T04:09:13.001Z,-5.19
2023-02-06T04:10:44.589Z,-5.15
2023-02-06T04:12:16.374Z,-5.08
2023-02-06T04:13:47.940Z,-5.09
2023-02-06T04:15:19.541Z,-5.06
2023-02-06T04:16:51.109Z,-5.00
2023-02-06T04:18:24.115Z,-4.93
2023-02-06T04:19:55.636Z,-4.90
2023-02-06T04:21:27.260Z,-4.90
2023-02-06T04:22:58.841Z,-4.93
2023-02-06T04:24:31.125Z,-4.90
2023-02-06T04:26:02.714Z,-4.83
2023-02-06T04:27:34.359Z,-4.79
2023-02-06T04:29:05.924Z,-4.74
2023-02-06T04:30:37.475Z,-4.71
2023-02-06T04:32:09.126Z,-4.69
2023-02-06T04:33:40.608Z,-4.66
2023-02-06T04:35:12.073Z,-4.64
2023-02-06T04:36:43.641Z,-4.68
2023-02-06T04:38:15.225Z,-4.70
2023-02-06T04:39:47.412Z,-4.69
2023-02-06T04:41:18.899Z,-4.66
2023-02-06T04:42:50.577Z,-4.61
2023-02-06T04:44:22.145Z,-4.57
2023-02-06T04:45:54.221Z,-4.53
2023-02-06T04:47:25.881Z,-4.57
2023-02-06T04:48:57.489Z,-4.57
2023-02-06T04:50:31.433Z,-4.61
2023-02-06T04:52:02.986Z,-4.70
2023-02-06T04:53:34.469Z,-4.78
2023-02-06T04:55:06.231Z,-4.83
2023-02-06T04:56:37.733Z,-4.90
2023-02-06T04:58:09.407Z,-4.98
2023-02-06T04:59:40.943Z,-5.00
2023-02-06T05:01:12.508Z,-5.08
2023-02-06T05:02:43.995Z,-5.04
2023-02-06T05:04:15.457Z,-5.03
2023-02-06T05:05:47.028Z,-5.03
2023-02-06T05:07:18.619Z,-5.07
2023-02-06T05:08:50.167Z,-5.12
2023-02-06T05:10:21.903Z,-5.22
2023-02-06T05:11:53.416Z,-5.32
2023-02-06T05:13:24.929Z,-5.35
2023-02-06T05:14:56.378Z,-5.40
2023-02-06T05:16:27.884Z,-5.44
2023-02-06T05:17:59.471Z,-5.55
2023-02-06T05:19:30.929Z,-5.65
2023-02-06T05:21:02.439Z,-5.82
2023-02-06T05:22:33.942Z,-5.92
2023-02-06T05:24:05.477Z,-5.93
2023-02-06T05:25:37.202Z,-5.88
2023-02-06T05:27:08.822Z,-5.83
2023-02-06T05:28:40.313Z,-5.79
2023-02-06T05:30:14.410Z,-5.76
2023-02-06T05:31:46.035Z,-5.75
2023-02-06T05:33:19.001Z,-5.75
2023-02-06T05:34:50.540Z,-5.69
2023-02-06T05:36:22.139Z,-5.66
2023-02-06T05:37:53.768Z,-5.65
2023-02-06T05:39:25.199Z,-5.58
2023-02-06T05:40:56.755Z,-5.60
2023-02-06T05:42:28.328Z,-5.60
2023-02-06T05:43:59.870Z,-5.66
2023-02-06T05:45:31.365Z,-5.73
2023-02-06T05:47:02.908Z,-5.78
2023-02-06T05:48:35.125Z,-5.79
2023-02-06T05:50:06.662Z,-5.80
2023-02-06T05:51:38.182Z,-5.80
2023-02-06T05:53:09.656Z,-5.81
2023-02-06T05:54:41.173Z,-5.82
2023-02-06T05:56:12.705Z,-5.80
2023-02-06T05:57:44.601Z,-5.74
2023-02-06T05:59:16.305Z,-5.68
2023-02-06T06:00:47.911Z,-5.68
2023-02-06T06:02:19.409Z,-5.59
2023-02-06T06:03:50.941Z,-5.53
2023-02-06T06:05:22.476Z,-5.52
2023-02-06T06:06:54.063Z,-5.45
2023-02-06T06:08:25.732Z,-5.46
2023-02-06T06:09:57.336Z,-5.50
2023-02-06T06:11:29.828Z,-5.54
2023-02-06T06:13:01.427Z,-5.53
2023-02-06T06:14:32.956Z,-5.49
2023-02-06T06:16:04.679Z,-5.41
2023-02-06T06:17:36.325Z,-5.26
2023-02-06T06:19:08.267Z,-5.15
2023-02-06T06:20:39.798Z,-5.05
2023-02-06T06:22:12.137Z,-4.98
2023-02-06T06:23:43.621Z,-4.93
2023-02-06T06:25:15.277Z,-4.85
2023-02-06T06:26:46.835Z,-4.76
2023-02-06T06:28:18.570Z,-4.72
2023-02-06T06:29:50.138Z,-4.67
2023-02-06T06:31:21.843Z,-4.59
2023-02-06T06:32:53.478Z,-4.51
2023-02-06T06:34:24.984Z,-4.50
2023-02-06T06:35:56.496Z,-4.46
2023-02-06T06:37:27.960Z,-4.44
2023-02-06T06:38:59.537Z,-4.37
2023-02-06T06:40:31.302Z,-4.31
2023-02-06T06:42:04.891Z,-4.25
2023-02-06T06:43:36.579Z,-4.22
2023-02-06T06:45:08.303Z,-4.15
2023-02-06T06:46:39.831Z,-4.11
2023-02-06T06:48:11.536Z,-4.14
2023-02-06T06:49:43.040Z,-4.14
2023-02-06T06:51:14.770Z,-4.10
2023-02-06T06:52:46.823Z,-4.05
2023-02-06T06:54:19.636Z,-3.97
2023-02-06T06:55:51.144Z,-3.88
2023-02-06T06:57:22.878Z,-3.85
2023-02-06T06:58:55.566Z,-3.85
2023-02-06T07:00:27.089Z,-3.82
2023-02-06T07:01:58.646Z,-3.81
2023-02-06T07:03:30.275Z,-3.84
2023-02-06T07:05:01.816Z,-3.82
2023-02-06T07:06:33.334Z,-3.84
2023-02-06T07:08:05.087Z,-3.79
2023-02-06T07:09:36.668Z,-3.72
2023-02-06T07:11:08.883Z,-3.80
2023-02-06T07:12:40.503Z,-3.85
2023-02-06T07:14:12.045Z,-3.87
2023-02-06T07:15:43.754Z,-3.83
2023-02-06T07:17:15.346Z,-3.79
2023-02-06T07:18:47.480Z,-3.81
2023-02-06T07:20:18.969Z,-3.82
2023-02-06T07:21:50.542Z,-3.79
2023-02-06T07:23:22.141Z,-3.79
2023-02-06T07:24:54.590Z,-3.72
2023-02-06T07:26:26.210Z,-3.68
2023-02-06T07:27:58.147Z,-3.68
2023-02-06T07:29:29.731Z,-3.63
2023-02-06T07:31:05.365Z,-3.52
2023-02-06T07:32:37.073Z,-3.39
2023-02-06T07:34:08.565Z,-3.27
2023-02-06T07:35:41.847Z,-3.19
2023-02-06T07:37:13.490Z,-3.15
2023-02-06T07:38:45.120Z,-3.06
2023-02-06T07:40:16.930Z,-2.99
2023-02-06T07:41:50.553Z,-2.97
2023-02-06T07:43:22.418Z,-2.99
2023-02-06T07:44:53.927Z,-2.99
2023-02-06T07:46:25.662Z,-2.90
2023-02-06T07:47:57.287Z,-2.88
2023-02-06T07:49:29.104Z,-2.80
2023-02-06T07:51:04.303Z,-2.75
2023-02-06T07:52:35.979Z,-2.75
2023-02-06T07:54:07.505Z,-2.77
2023-02-06T07:55:39.291Z,-2.69
2023-02-06T07:57:10.833Z,-2.65
2023-02-06T07:58:42.455Z,-2.69
2023-02-06T08:00:14.254Z,-2.76
2023-02-06T08:01:45.772Z,-2.77
2023-02-06T08:03:17.523Z,-2.72
2023-02-06T08:04:49.079Z,-2.69
2023-02-06T08:07:02.410Z,-2.66
2023-02-06T08:08:33.973Z,-2.59
2023-02-06T08:10:05.813Z,-2.61
2023-02-06T08:11:37.331Z,-2.56
2023-02-06T08:13:08.908Z,-2.44
2023-02-06T08:14:40.460Z,-2.38
2023-02-06T08:16:16.383Z,-2.25
2023-02-06T08:17:48.111Z,-1.99
2023-02-06T08:19:19.604Z,-1.79
2023-02-06T08:20:51.300Z,-1.70
2023-02-06T08:22:22.873Z,-1.62
2023-02-06T08:23:55.326Z,-1.49
2023-02-06T08:25:26.970Z,-1.55
2023-02-06T08:26:58.549Z,-1.53
2023-02-06T08:28:30.426Z,-1.45
2023-02-06T08:42:34.800Z,-1.26
2023-02-06T08:44:07.840Z,-1.19
2023-02-06T08:45:39.358Z,-1.03
2023-02-06T08:47:13.940Z,-0.90
2023-02-06T08:48:45.631Z,-0.79
2023-02-06T08:50:17.272Z,-0.57
2023-02-06T08:51:51.961Z,-0.48
2023-02-06T08:53:23.613Z,-0.42
2023-02-06T08:54:55.363Z,-0.42
2023-02-06T08:56:27.006Z,-0.36
2023-02-06T08:57:58.458Z,-0.15
2023-02-06T08:59:31.087Z,0.05
2023-02-06T09:01:08.977Z,0.19
2023-02-06T09:02:40.679Z,0.26
2023-02-06T09:04:12.999Z,0.45
2023-02-06T09:05:44.510Z,0.66
2023-02-06T09:07:17.350Z,0.83
2023-02-06T09:08:49.002Z,0.92
2023-02-06T09:10:27.548Z,1.03
2023-02-06T09:12:03.896Z,1.17
2023-02-06T09:13:36.344Z,1.23
2023-02-06T09:15:08.113Z,1.16
2023-02-06T09:16:39.699Z,1.16
2023-02-06T09:18:11.794Z,1.23
2023-02-06T09:19:43.828Z,1.39
2023-02-06T09:21:16.644Z,1.55
2023-02-06T09:22:48.324Z,1.58
2023-02-06T09:24:20.026Z,1.68
2023-02-06T09:25:51.573Z,1.75
2023-02-06T09:27:23.094Z,1.79
2023-02-06T09:28:54.983Z,1.81
2023-02-06T09:30:26.549Z,1.81
2023-02-06T09:31:58.208Z,1.83
2023-02-06T09:33:30.437Z,1.86
2023-02-06T09:35:04.548Z,1.89
2023-02-06T09:36:36.921Z,1.86
2023-02-06T09:38:08.461Z,1.88
2023-02-06T09:39:40.133Z,1.80
2023-02-06T09:41:32.488Z,1.91
2023-02-06T09:43:03.987Z,2.13
2023-02-06T09:44:46.339Z,2.23
2023-02-06T09:46:21.408Z,2.42
2023-02-06T09:48:12.084Z,2.50
2023-02-06T09:49:44.797Z,2.53
2023-02-06T09:51:22.332Z,2.62
2023-02-06T09:53:12.503Z,2.57
2023-02-06T09:55:05.845Z,2.39
2023-02-06T09:56:40.284Z,2.23
2023-02-06T09:58:20.677Z,2.21
2023-02-06T09:59:56.774Z,2.10
2023-02-06T10:01:34.237Z,2.00
2023-02-06T10:03:15.247Z,1.98
2023-02-06T10:04:49.899Z,2.06
2023-02-06T10:06:41.485Z,2.06
2023-02-06T10:08:27.978Z,1.99
2023-02-06T10:10:01.618Z,1.98
2023-02-06T10:11:39.405Z,1.86
2023-02-06T10:13:11.002Z,1.85
2023-02-06T10:14:47.691Z,1.91
2023-02-06T10:16:37.171Z,1.97
2023-02-06T10:18:16.703Z,2.00
2023-02-06T10:19:53.561Z,1.99
2023-02-06T10:21:32.659Z,1.93
2023-02-06T10:23:10.305Z,1.94
2023-02-06T10:24:43.657Z,1.93
2023-02-06T10:26:18.738Z,2.09
2023-02-06T10:27:55.053Z,2.14
2023-02-06T10:29:36.494Z,2.13
2023-02-06T10:31:27.112Z,2.06
2023-02-06T10:33:01.280Z,2.07
2023-02-06T10:34:52.002Z,2.10
2023-02-06T10:36:42.329Z,2.02
2023-02-06T10:38:25.912Z,1.99
2023-02-06T10:40:19.939Z,2.00
2023-02-06T10:41:51.615Z,2.02
2023-02-06T10:43:23.178Z,1.98
2023-02-06T10:45:19.623Z,1.88
2023-02-06T10:46:52.200Z,1.85
2023-02-06T10:48:42.995Z,1.87
2023-02-06T10:50:33.471Z,1.88
2023-02-06T10:52:14.879Z,1.89
2023-02-06T10:54:06.988Z,1.88
2023-02-06T10:55:43.094Z,1.87
2023-02-06T10:57:19.462Z,1.90
2023-02-06T10:58:55.196Z,1.92
2023-02-06T11:00:27.046Z,1.96
2023-02-06T11:02:02.176Z,1.93
2023-02-06T11:03:43.713Z,1.93
2023-02-06T11:05:19.729Z,1.94
2023-02-06T11:06:51.368Z,1.83
2023-02-06T11:08:25.617Z,1.74
2023-02-06T11:09:57.367Z,1.68
2023-02-06T11:11:32.082Z,1.71
2023-02-06T11:13:05.194Z,1.77
2023-02-06T11:14:37.552Z,1.71
2023-02-06T11:16:09.786Z,1.72
2023-02-06T11:17:41.345Z,1.63
2023-02-06T11:19:26.035Z,1.55
2023-02-06T11:20:57.828Z,1.49
2023-02-06T11:22:32.069Z,1.30
2023-02-06T11:24:09.997Z,1.11
2023-02-06T11:25:42.487Z,1.10
2023-02-06T11:27:17.693Z,1.08
2023-02-06T11:28:50.711Z,1.15
2023-02-06T11:30:25.076Z,1.13
2023-02-06T11:31:58.667Z,1.14
2023-02-06T11:33:36.574Z,1.07
2023-02-06T11:35:28.535Z,1.04
2023-02-06T11:37:04.060Z,1.04
2023-02-06T11:38:35.817Z,1.11
2023-02-06T11:40:19.355Z,1.07
2023-02-06T11:41:58.496Z,0.99
2023-02-06T11:43:34.002Z,0.98
2023-02-06T11:45:18.075Z,0.99
2023-02-06T11:46:49.689Z,1.08
2023-02-06T11:48:31.857Z,1.24
2023-02-06T11:50:12.491Z,1.34
2023-02-06T11:51:52.223Z,1.40
2023-02-06T11:53:23.885Z,1.38
2023-02-06T11:54:57.152Z,1.39
2023-02-06T11:56:29.289Z,1.40
2023-02-06T11:58:12.661Z,1.50
2023-02-06T12:00:13.588Z,1.63
2023-02-06T12:01:46.257Z,1.82
2023-02-06T12:03:29.356Z,1.95
2023-02-06T12:05:07.280Z,2.03
2023-02-06T12:06:39.064Z,1.99
2023-02-06T12:08:11.915Z,1.98
2023-02-06T12:09:43.436Z,1.94
2023-02-06T12:11:20.854Z,1.94
2023-02-06T12:13:02.686Z,1.96
2023-02-06T12:14:37.049Z,1.93
2023-02-06T12:16:08.597Z,1.93
2023-02-06T12:17:44.171Z,1.82
2023-02-06T12:19:16.917Z,1.67
2023-02-06T12:20:50.434Z,1.58
2023-02-06T12:22:22.929Z,1.58
2023-02-06T12:24:01.735Z,1.52
2023-02-06T12:25:35.168Z,1.42
2023-02-06T12:27:12.092Z,1.31
2023-02-06T12:28:52.614Z,1.35
2023-02-06T12:30:29.937Z,1.39
2023-02-06T12:32:09.882Z,1.39
2023-02-06T12:33:48.052Z,1.37
2023-02-06T12:35:22.078Z,1.30
2023-02-06T12:37:00.549Z,1.20
2023-02-06T12:38:34.664Z,1.18
2023-02-06T12:40:38.864Z,1.23
2023-02-06T12:42:27.775Z,1.35
2023-02-06T12:44:13.072Z,1.47
2023-02-06T12:45:47.143Z,1.51
2023-02-06T12:47:24.549Z,1.54
2023-02-06T12:48:58.919Z,1.50
2023-02-06T12:50:36.680Z,1.45
2023-02-06T12:52:12.030Z,1.42
2023-02-06T12:53:45.943Z,1.49
2023-02-06T12:55:23.710Z,1.56
2023-02-06T12:56:57.297Z,1.56
2023-02-06T12:58:30.401Z,1.62
2023-02-06T13:00:17.266Z,1.62
2023-02-06T13:01:52.157Z,1.67
2023-02-06T13:03:26.252Z,1.71
2023-02-06T13:04:57.819Z,1.74
2023-02-06T13:06:30.423Z,1.75
2023-02-06T13:13:26.589Z,1.48
2023-02-06T13:14:59.757Z,1.40
2023-02-06T13:16:42.441Z,1.39
2023-02-06T13:18:32.746Z,1.34
2023-02-06T13:20:07.729Z,1.27
2023-02-06T13:21:39.355Z,1.25
2023-02-06T13:23:13.850Z,1.21
2023-02-06T13:24:46.413Z,1.19
2023-02-06T13:26:18.024Z,1.19
2023-02-06T13:27:49.596Z,1.12
2023-02-06T13:29:27.430Z,1.08
2023-02-06T13:30:59.758Z,1.06
2023-02-06T13:32:32.364Z,1.06
2023-02-06T13:34:05.824Z,1.04
2023-02-06T13:35:37.624Z,0.93
2023-02-06T13:37:21.359Z,0.85
2023-02-06T13:38:56.625Z,0.70
2023-02-06T13:40:30.724Z,0.62
2023-02-06T13:42:03.798Z,0.63
2023-02-06T13:43:35.471Z,0.76
2023-02-06T13:45:07.225Z,0.79
2023-02-06T13:46:39.498Z,0.84
2023-02-06T13:48:17.454Z,0.76
2023-02-06T13:49:49.066Z,0.79
2023-02-06T13:51:26.846Z,0.84
2023-02-06T13:53:13.781Z,0.85
2023-02-06T13:54:48.305Z,0.81
2023-02-06T13:56:20.041Z,0.78
2023-02-06T13:57:55.148Z,0.70
2023-02-06T13:59:30.364Z,0.54
2023-02-06T14:01:01.909Z,0.50
2023-02-06T14:02:43.252Z,0.58
2023-02-06T14:04:27.422Z,0.70
2023-02-06T14:06:01.732Z,0.91
2023-02-06T14:07:59.588Z,1.13
2023-02-06T14:09:38.556Z,1.34
2023-02-06T14:11:11.372Z,1.48
2023-02-06T14:12:48.931Z,1.63
2023-02-06T14:14:27.506Z,1.75
2023-02-06T14:16:08.109Z,1.92
2023-02-06T14:17:58.474Z,2.06
2023-02-06T14:19:39.495Z,2.30
2023-02-06T14:21:29.910Z,2.49
2023-02-06T14:23:06.252Z,2.74
2023-02-06T14:24:47.366Z,2.82
2023-02-06T14:26:23.073Z,2.80
2023-02-06T14:28:23.957Z,2.90
2023-02-06T14:30:02.962Z,2.89
2023-02-06T14:31:52.905Z,2.85
2023-02-06T14:33:43.376Z,2.78
2023-02-06T14:35:20.973Z,2.60
2023-02-06T14:36:55.425Z,2.48
2023-02-06T14:43:27.673Z,1.98
2023-02-06T14:45:06.764Z,1.80
2023-02-06T14:46:39.630Z,1.64
2023-02-06T14:48:18.520Z,1.65
2023-02-06T14:49:50.109Z,1.68
2023-02-06T14:51:28.958Z,1.67
2023-02-06T14:53:02.106Z,1.68
2023-02-06T14:54:34.698Z,1.63
2023-02-06T14:56:09.193Z,1.58
2023-02-06T14:57:41.106Z,1.47
2023-02-06T14:59:15.561Z,1.46
2023-02-06T15:00:47.231Z,1.41
2023-02-06T15:02:23.152Z,1.28
2023-02-06T15:04:07.778Z,1.14
2023-02-06T15:05:39.330Z,0.98
2023-02-06T15:07:19.942Z,0.92
2023-02-06T15:08:51.611Z,0.81
2023-02-06T15:10:26.553Z,0.75
2023-02-06T15:11:59.260Z,0.76
2023-02-06T15:13:38.037Z,0.71
2023-02-06T15:15:19.788Z,0.72
2023-02-06T15:16:51.645Z,0.70
2023-02-06T15:18:23.445Z,0.67
2023-02-06T15:19:54.988Z,0.58
2023-02-06T15:21:26.559Z,0.44
2023-02-06T15:23:11.725Z,0.22
2023-02-06T15:24:49.810Z,0.04
2023-02-06T15:26:35.799Z,-0.06
2023-02-06T15:28:09.592Z,-0.18
2023-02-06T15:29:41.266Z,-0.28
2023-02-06T15:31:20.123Z,-0.49
2023-02-06T15:32:52.519Z,-0.59
2023-02-06T15:34:24.803Z,-0.73
2023-02-06T15:35:57.205Z,-0.79
2023-02-06T15:37:32.882Z,-0.75
2023-02-06T15:39:05.370Z,-0.72
2023-02-06T15:40:39.106Z,-0.74
2023-02-06T15:42:11.001Z,-0.76
2023-02-06T15:43:44.412Z,-0.81
2023-02-06T15:45:22.616Z,-0.84
2023-02-06T15:46:54.273Z,-0.91
2023-02-06T15:48:28.135Z,-0.99
2023-02-06T15:50:01.927Z,-1.02
2023-02-06T15:51:40.884Z,-1.09
2023-02-06T15:53:19.045Z,-1.16
2023-02-06T15:54:56.567Z,-1.18
2023-02-06T15:56:29.211Z,-1.25
2023-02-06T15:58:01.573Z,-1.34
2023-02-06T15:59:34.103Z,-1.38
2023-02-06T16:01:05.922Z,-1.41
2023-02-06T16:02:37.750Z,-1.42
2023-02-06T16:04:12.722Z,-1.38
2023-02-06T16:05:44.536Z,-1.42
2023-02-06T16:07:17.830Z,-1.47
2023-02-06T16:08:50.419Z,-1.51
2023-02-06T16:10:22.231Z,-1.49
2023-02-06T16:11:53.891Z,-1.48
2023-02-06T16:13:26.137Z,-1.49
2023-02-06T16:14:58.374Z,-1.57
2023-02-06T16:16:30.029Z,-1.58
2023-02-06T16:18:02.631Z,-1.55
2023-02-06T16:19:39.983Z,-1.56
2023-02-06T16:21:18.235Z,-1.60
2023-02-06T16:22:50.662Z,-1.68
2023-02-06T16:24:22.350Z,-1.70
2023-02-06T16:26:07.545Z,-1.69
2023-02-06T16:27:42.063Z,-1.67
2023-02-06T16:29:18.399Z,-1.64
2023-02-06T16:30:53.704Z,-1.68
2023-02-06T16:32:27.890Z,-1.71
2023-02-06T16:34:05.736Z,-1.75
2023-02-06T16:35:37.276Z,-1.75
2023-02-06T16:37:16.053Z,-1.83
2023-02-06T16:38:57.634Z,-1.99
2023-02-06T16:40:34.909Z,-2.01
2023-02-06T16:42:06.667Z,-2.00
2023-02-06T16:43:38.334Z,-2.13
2023-02-06T16:45:20.823Z,-2.24
2023-02-06T16:46:52.487Z,-2.24
2023-02-06T16:48:23.995Z,-2.29
2023-02-06T16:49:55.561Z,-2.30
2023-02-06T16:51:28.561Z,-2.38
2023-02-06T16:53:02.800Z,-2.48
2023-02-06T16:54:34.739Z,-2.46
2023-02-06T16:56:06.582Z,-2.44
2023-02-06T16:57:41.769Z,-2.47
2023-02-06T16:59:13.423Z,-2.64
2023-02-06T17:00:45.272Z,-2.77
2023-02-06T17:02:16.926Z,-2.90
2023-02-06T17:03:48.964Z,-2.99
2023-02-06T17:05:21.788Z,-2.98
2023-02-06T17:06:53.486Z,-2.90
2023-02-06T17:08:25.054Z,-2.86
2023-02-06T17:09:57.445Z,-2.85
2023-02-06T17:11:29.488Z,-2.83
2023-02-06T17:13:01.081Z,-2.71
2023-02-06T17:14:33.057Z,-2.68
2023-02-06T17:16:04.729Z,-2.75
2023-02-06T17:17:36.257Z,-2.68
2023-02-06T17:19:08.866Z,-2.69
2023-02-06T17:20:41.232Z,-2.76
2023-02-06T17:22:12.773Z,-2.71
2023-02-06T17:23:44.519Z,-2.69
2023-02-06T17:25:16.258Z,-2.73
2023-02-06T17:26:47.769Z,-2.79
2023-02-06T17:28:20.388Z,-2.74
2023-02-06T17:29:53.892Z,-2.66
2023-02-06T17:31:26.081Z,-2.60
2023-02-06T17:32:57.733Z,-2.54
2023-02-06T17:34:30.292Z,-2.49
2023-02-06T17:36:02.104Z,-2.46
2023-02-06T17:37:33.796Z,-2.42
2023-02-06T17:39:05.483Z,-2.43
2023-02-06T17:40:37.542Z,-2.39
2023-02-06T17:42:09.270Z,-2.38
2023-02-06T17:43:40.869Z,-2.39
2023-02-06T17:45:12.348Z,-2.31
2023-02-06T17:46:44.485Z,-2.29
2023-02-06T17:48:16.218Z,-2.36
2023-02-06T17:49:47.843Z,-2.45
2023-02-06T17:51:19.354Z,-2.43
2023-02-06T17:52:52.869Z,-2.36
2023-02-06T17:54:24.424Z,-2.38
2023-02-06T17:55:55.953Z,-2.37
2023-02-06T17:57:29.906Z,-2.37
2023-02-06T17:59:01.999Z,-2.43
2023-02-06T18:00:33.591Z,-2.44
2023-02-06T18:02:05.933Z,-2.45
2023-02-06T18:03:37.454Z,-2.48
2023-02-06T18:05:08.979Z,-2.52
2023-02-06T18:06:40.546Z,-2.56
2023-02-06T18:08:12.428Z,-2.62
2023-02-06T18:09:43.971Z,-2.71
2023-02-06T18:11:16.872Z,-2.79
2023-02-06T18:12:48.369Z,-2.85
2023-02-06T18:14:21.086Z,-2.90
2023-02-06T18:15:53.124Z,-2.96
2023-02-06T18:17:24.767Z,-3.08
2023-02-06T18:18:56.653Z,-3.14
2023-02-06T18:20:28.304Z,-3.21
2023-02-06T18:22:00.293Z,-3.24
2023-02-06T18:23:31.841Z,-3.29
2023-02-06T18:25:05.368Z,-3.35
2023-02-06T18:26:36.927Z,-3.44
2023-02-06T18:28:09.436Z,-3.43
2023-02-06T18:29:49.260Z,-3.36
2023-02-06T18:31:21.288Z,-3.33
2023-02-06T18:32:52.989Z,-3.33
2023-02-06T18:34:24.512Z,-3.31
2023-02-06T18:35:56.058Z,-3.24
2023-02-06T18:37:27.968Z,-3.24
2023-02-06T18:38:59.861Z,-3.24
2023-02-06T18:40:32.240Z,-3.23
2023-02-06T18:42:22.129Z,-3.17
2023-02-06T18:43:53.887Z,-3.17
2023-02-06T18:45:27.227Z,-3.20
2023-02-06T18:46:58.875Z,-3.20
2023-02-06T18:48:30.505Z,-3.13
2023-02-06T18:50:02.187Z,-3.08
2023-02-06T18:51:33.835Z,-3.20
2023-02-06T18:53:05.341Z,-3.25
2023-02-06T18:54:36.960Z,-3.25
2023-02-06T18:56:08.543Z,-3.26
2023-02-06T18:57:40.976Z,-3.22
2023-02-06T18:59:13.150Z,-3.13
2023-02-06T19:00:44.763Z,-3.09
2023-02-06T19:02:16.644Z,-3.13
2023-02-06T19:03:48.551Z,-3.23
2023-02-06T19:05:20.289Z,-3.25
2023-02-06T19:06:51.934Z,-3.30
2023-02-06T19:08:23.571Z,-3.31
2023-02-06T19:09:56.216Z,-3.34
2023-02-06T19:11:27.809Z,-3.38
2023-02-06T19:13:00.750Z,-3.32
2023-02-06T19:14:32.287Z,-3.25
2023-02-06T19:16:06.351Z,-3.21
2023-02-06T19:17:38.003Z,-3.17
2023-02-06T19:19:09.758Z,-3.25
2023-02-06T19:20:42.349Z,-3.28
2023-02-06T19:22:14.627Z,-3.34
2023-02-06T19:23:46.704Z,-3.35
2023-02-06T19:25:19.357Z,-3.31
2023-02-06T19:26:50.852Z,-3.20
2023-02-06T19:28:23.036Z,-3.13
2023-02-06T19:29:54.639Z,-3.10
2023-02-06T19:31:26.424Z,-3.11
2023-02-06T19:32:57.958Z,-3.02
2023-02-06T19:34:29.610Z,-2.96
2023-02-06T19:36:11.380Z,-2.94
2023-02-06T19:37:42.955Z,-2.87
2023-02-06T19:39:14.929Z,-2.85
2023-02-06T19:40:47.508Z,-2.86
2023-02-06T19:42:27.571Z,-2.89
2023-02-06T19:44:01.981Z,-2.90
2023-02-06T19:45:34.853Z,-2.89
2023-02-06T19:47:06.734Z,-2.87
2023-02-06T19:48:38.945Z,-2.88
2023-02-06T19:50:13.270Z,-2.89
2023-02-06T19:51:45.795Z,-2.86
2023-02-06T19:53:17.319Z,-2.84
2023-02-06T19:54:49.048Z,-2.84
2023-02-06T19:56:41.326Z,-2.74
2023-02-06T19:58:13.465Z,-2.72
2023-02-06T19:59:45.095Z,-2.72
2023-02-06T20:01:16.712Z,-2.69
2023-02-06T20:02:48.270Z,-2.70
2023-02-06T20:04:20.406Z,-2.70
2023-02-06T20:05:51.943Z,-2.68
2023-02-06T20:07:23.471Z,-2.69
2023-02-06T20:08:55.955Z,-2.72
2023-02-06T20:10:27.940Z,-2.74
2023-02-06T20:12:00.094Z,-2.74
2023-02-06T20:13:31.662Z,-2.74
2023-02-06T20:15:03.455Z,-2.73
2023-02-06T20:16:35.488Z,-2.74
2023-02-06T20:18:07.598Z,-2.77
2023-02-06T20:19:39.209Z,-2.76
2023-02-06T20:21:31.406Z,-2.85
2023-02-06T20:23:03.092Z,-2.78
2023-02-06T20:24:35.205Z,-2.82
2023-02-06T20:26:06.721Z,-2.86
2023-02-06T20:27:38.452Z,-2.88
2023-02-06T20:29:10.294Z,-2.87
2023-02-06T20:30:42.192Z,-2.86
2023-02-06T20:32:16.713Z,-2.91
2023-02-06T20:33:48.409Z,-2.97
2023-02-06T20:35:20.023Z,-2.98
2023-02-06T20:36:51.787Z,-2.99
2023-02-06T20:38:23.406Z,-3.01
2023-02-06T20:39:54.974Z,-3.04
2023-02-06T20:41:27.684Z,-3.09
2023-02-06T20:42:59.702Z,-3.10
2023-02-06T20:44:32.021Z,-3.04
2023-02-06T20:46:07.011Z,-3.01
2023-02-06T20:47:38.735Z,-2.97
2023-02-06T20:49:14.476Z,-2.97